Time;durP1;ratioP1;P1;durP2;ratioP2;P2;SDS_P1;SDS_P2;PMS_P1;PMS_P2;Temp;Humidity;BMP_temperature;BMP_pressure;BME280_temperature;BME280_humidity;BME280_pressure;Samples;Min_cycle;Max_cycle;Signal;HPM_P1;HPM_P2
2021/11/16 00:00:51;;;;;;;42.33;16.87;;;;;;;;;;5076482;28;20696;-66
2021/11/16 00:03:17;;;;;;;38.57;17.47;;;;;;;;;;5093306;28;20201;-66
2021/11/16 00:05:43;;;;;;;37.13;15.93;;;;;;;;;;5075099;28;20225;-67
2021/11/16 00:08:10;;;;;;;38.17;16.57;;;;;;;;;;5092805;28;20565;-67
2021/11/16 00:10:37;;;;;;;38.23;17.27;;;;;;;;;;5092531;28;20204;-67
2021/11/16 00:13:10;;;;;;;40.13;15.83;;;;;;;;;;5092764;28;20295;-67
2021/11/16 00:15:37;;;;;;;42.63;17.43;;;;;;;;;;5092156;28;20211;-67
2021/11/16 00:18:03;;;;;;;38.33;15.43;;;;;;;;;;5092837;28;20299;-66
2021/11/16 00:20:32;;;;;;;35.03;15.20;;;;;;;;;;5090863;28;20224;-67
2021/11/16 00:22:58;;;;;;;43.20;15.77;;;;;;;;;;5091815;28;20239;-66
2021/11/16 00:25:33;;;;;;;37.83;16.53;;;;;;;;;;5092713;28;20221;-67
2021/11/16 00:28:00;;;;;;;37.83;16.17;;;;;;;;;;5093049;28;20286;-67
2021/11/16 00:30:26;;;;;;;40.30;16.60;;;;;;;;;;5101001;28;20230;-67
2021/11/16 00:32:53;;;;;;;36.70;17.17;;;;;;;;;;5106995;28;20204;-68
2021/11/16 00:35:19;;;;;;;36.60;15.13;;;;;;;;;;5110626;28;20240;-68
2021/11/16 00:37:46;;;;;;;39.07;16.57;;;;;;;;;;5110928;28;20209;-67
2021/11/16 00:40:19;;;;;;;40.67;16.97;;;;;;;;;;5098399;28;20611;-67
2021/11/16 00:42:47;;;;;;;39.90;16.53;;;;;;;;;;5096549;28;20287;-68
2021/11/16 00:45:13;;;;;;;40.83;15.77;;;;;;;;;;5092980;28;20204;-67
2021/11/16 00:47:41;;;;;;;43.43;16.70;;;;;;;;;;5081208;28;20218;-68
2021/11/16 00:50:08;;;;;;;35.80;16.27;;;;;;;;;;5071736;28;20209;-67
2021/11/16 00:52:34;;;;;;;39.97;16.33;;;;;;;;;;5072269;28;20209;-68
2021/11/16 00:55:01;;;;;;;34.80;16.73;;;;;;;;;;5072111;28;20299;-68
2021/11/16 00:57:28;;;;;;;36.70;15.73;;;;;;;;;;5071104;28;20311;-67
2021/11/16 00:59:54;;;;;;;32.87;14.93;;;;;;;;;;5071964;28;20225;-67
2021/11/16 01:35:13;;;;;;;41.23;16.73;;;;;;;;;;5109601;27;20530;-67
2021/11/16 01:37:40;;;;;;;39.30;17.90;;;;;;;;;;5109409;28;20255;-67
2021/11/16 01:40:09;;;;;;;34.03;16.27;;;;;;;;;;5108673;28;20559;-66
2021/11/16 01:42:41;;;;;;;40.27;17.27;;;;;;;;;;5108455;28;20571;-67
2021/11/16 01:45:07;;;;;;;34.40;15.97;;;;;;;;;;5109433;28;20629;-66
2021/11/16 01:47:34;;;;;;;34.47;15.53;;;;;;;;;;5109361;28;20304;-67
2021/11/16 01:50:00;;;;;;;34.80;15.40;;;;;;;;;;5108512;28;20614;-67
2021/11/16 01:52:27;;;;;;;37.53;17.90;;;;;;;;;;5109090;28;20200;-67
2021/11/16 01:54:53;;;;;;;42.40;15.80;;;;;;;;;;5109202;28;20306;-66
2021/11/16 01:57:19;;;;;;;38.53;15.87;;;;;;;;;;5107881;28;20322;-66
2021/11/16 01:59:46;;;;;;;35.07;15.87;;;;;;;;;;5108261;28;20811;-66
2021/11/16 02:02:13;;;;;;;37.93;17.50;;;;;;;;;;5108896;28;20212;-66
2021/11/16 02:04:40;;;;;;;39.60;15.87;;;;;;;;;;5108956;28;20211;-67
2021/11/16 02:07:07;;;;;;;36.57;15.10;;;;;;;;;;5107442;28;20220;-67
2021/11/16 02:09:34;;;;;;;33.50;15.37;;;;;;;;;;5108246;28;20215;-65
2021/11/16 02:12:01;;;;;;;39.83;16.30;;;;;;;;;;5108837;28;20228;-66
2021/11/16 02:14:27;;;;;;;31.13;13.77;;;;;;;;;;5108533;28;20306;-66
2021/11/16 02:16:54;;;;;;;37.00;16.63;;;;;;;;;;5108590;28;20719;-65
2021/11/16 02:19:21;;;;;;;30.50;14.70;;;;;;;;;;5108613;28;20283;-66
2021/11/16 02:21:48;;;;;;;33.93;15.07;;;;;;;;;;5108378;28;20235;-66
2021/11/16 02:24:16;;;;;;;36.93;15.10;;;;;;;;;;5107363;28;20216;-66
2021/11/16 02:26:43;;;;;;;36.43;14.80;;;;;;;;;;5108494;28;20230;-65
2021/11/16 02:29:09;;;;;;;31.43;14.47;;;;;;;;;;5108371;28;20682;-67
2021/11/16 02:31:36;;;;;;;36.00;14.63;;;;;;;;;;5107739;28;20208;-66
2021/11/16 02:34:03;;;;;;;29.37;15.27;;;;;;;;;;5107946;28;20731;-65
2021/11/16 02:36:31;;;;;;;36.47;15.50;;;;;;;;;;5108270;28;20215;-66
2021/11/16 02:38:58;;;;;;;33.50;13.47;;;;;;;;;;5108395;28;20196;-64
2021/11/16 02:41:29;;;;;;;32.00;15.60;;;;;;;;;;5107622;28;20979;-65
2021/11/16 02:43:57;;;;;;;32.40;14.20;;;;;;;;;;5108072;28;20239;-66
2021/11/16 02:46:23;;;;;;;34.33;14.87;;;;;;;;;;5095219;28;20242;-65
2021/11/16 02:48:50;;;;;;;36.13;14.20;;;;;;;;;;5074233;28;20210;-68
2021/11/16 02:51:16;;;;;;;36.87;15.73;;;;;;;;;;5073716;28;20229;-66
2021/11/16 02:53:43;;;;;;;41.27;15.30;;;;;;;;;;5073973;28;20257;-65
2021/11/16 02:56:09;;;;;;;35.00;14.90;;;;;;;;;;5073880;28;20248;-65
2021/11/16 02:58:36;;;;;;;40.87;15.93;;;;;;;;;;5074069;28;20764;-69
2021/11/16 03:01:07;;;;;;;32.97;14.10;;;;;;;;;;5079005;28;20278;-67
2021/11/16 03:03:38;;;;;;;30.87;14.70;;;;;;;;;;5094400;28;20307;-66
2021/11/16 03:06:04;;;;;;;37.73;16.30;;;;;;;;;;5094234;28;20225;-66
2021/11/16 03:08:30;;;;;;;37.10;15.33;;;;;;;;;;5093149;28;20209;-66
2021/11/16 03:10:59;;;;;;;36.90;14.73;;;;;;;;;;5093481;28;20210;-66
2021/11/16 03:13:28;;;;;;;39.13;15.40;;;;;;;;;;5093934;28;20299;-66
2021/11/16 03:15:55;;;;;;;33.57;14.93;;;;;;;;;;5093891;28;20228;-67
2021/11/16 03:18:21;;;;;;;34.07;13.53;;;;;;;;;;5094358;28;20564;-65
2021/11/16 03:20:48;;;;;;;33.47;14.60;;;;;;;;;;5093638;28;20236;-66
2021/11/16 03:23:19;;;;;;;30.73;13.57;;;;;;;;;;5093894;28;20295;-66
2021/11/16 03:28:16;;;;;;;32.60;13.37;;;;;;;;;;5093796;28;20273;-67
2021/11/16 03:30:44;;;;;;;35.23;14.53;;;;;;;;;;5093315;28;20287;-66
2021/11/16 03:33:10;;;;;;;33.47;14.20;;;;;;;;;;5092353;28;20209;-66
2021/11/16 03:35:37;;;;;;;32.63;13.57;;;;;;;;;;5093814;28;20233;-66
2021/11/16 03:38:04;;;;;;;31.33;13.10;;;;;;;;;;5092307;28;20288;-66
2021/11/16 03:40:33;;;;;;;32.90;13.80;;;;;;;;;;5092803;28;20284;-65
2021/11/16 03:42:59;;;;;;;34.77;13.73;;;;;;;;;;5093166;28;20300;-65
2021/11/16 03:45:26;;;;;;;36.80;14.13;;;;;;;;;;5092971;28;20232;-66
2021/11/16 03:47:54;;;;;;;27.87;13.27;;;;;;;;;;5080811;28;20280;-66
2021/11/16 03:50:24;;;;;;;31.70;13.40;;;;;;;;;;5072444;28;20283;-65
2021/11/16 03:52:56;;;;;;;28.23;11.83;;;;;;;;;;5073058;28;20628;-65
2021/11/16 03:55:26;;;;;;;34.97;14.10;;;;;;;;;;5072760;28;20292;-64
2021/11/16 03:57:57;;;;;;;30.80;13.30;;;;;;;;;;5071984;28;20666;-64
2021/11/16 04:00:26;;;;;;;29.10;14.00;;;;;;;;;;5072530;28;20307;-65
2021/11/16 04:02:53;;;;;;;35.27;14.63;;;;;;;;;;5093180;28;20204;-65
2021/11/16 04:05:20;;;;;;;32.57;14.10;;;;;;;;;;5092977;28;20224;-65
2021/11/16 04:07:47;;;;;;;35.23;13.93;;;;;;;;;;5092792;28;20744;-64
2021/11/16 04:10:13;;;;;;;32.37;12.87;;;;;;;;;;5092410;28;20201;-65
2021/11/16 04:12:40;;;;;;;27.87;12.90;;;;;;;;;;5092713;28;20672;-66
2021/11/16 04:15:07;;;;;;;32.07;12.07;;;;;;;;;;5092775;28;20734;-65
2021/11/16 04:17:35;;;;;;;28.47;13.10;;;;;;;;;;5092678;28;20224;-65
2021/11/16 04:20:03;;;;;;;28.13;13.60;;;;;;;;;;5092088;28;20212;-66
2021/11/16 04:22:30;;;;;;;32.33;13.17;;;;;;;;;;5092671;28;20744;-66
2021/11/16 04:24:58;;;;;;;29.10;13.23;;;;;;;;;;5092517;28;20778;-65
2021/11/16 04:27:24;;;;;;;36.83;13.93;;;;;;;;;;5092571;28;20782;-68
2021/11/16 04:29:50;;;;;;;27.20;12.70;;;;;;;;;;5091802;28;20197;-66
2021/11/16 04:32:17;;;;;;;32.03;13.77;;;;;;;;;;5092526;28;20636;-66
2021/11/16 04:34:43;;;;;;;28.10;12.93;;;;;;;;;;5091542;28;20276;-66
2021/11/16 04:37:10;;;;;;;27.63;13.50;;;;;;;;;;5092498;28;20316;-66
2021/11/16 04:39:36;;;;;;;28.07;12.67;;;;;;;;;;5090801;28;20218;-68
2021/11/16 04:42:03;;;;;;;31.47;14.03;;;;;;;;;;5092799;28;20287;-66
2021/11/16 04:44:29;;;;;;;33.60;13.93;;;;;;;;;;5092350;28;20225;-66
2021/11/16 04:46:56;;;;;;;36.77;14.83;;;;;;;;;;5090004;28;20288;-66
2021/11/16 04:49:35;;;;;;;33.87;14.60;;;;;;;;;;5084264;28;20212;-66
2021/11/16 04:55:23;;;;;;;32.10;13.83;;;;;;;;;;5072204;28;20286;-66
2021/11/16 05:02:53;;;;;;;36.80;15.43;;;;;;;;;;5072025;28;20208;-66
2021/11/16 05:05:21;;;;;;;34.07;13.80;;;;;;;;;;5072017;28;20792;-65
2021/11/16 05:07:55;;;;;;;38.07;13.33;;;;;;;;;;5071465;28;20236;-66
2021/11/16 05:10:22;;;;;;;26.20;12.30;;;;;;;;;;5070854;28;20201;-66
2021/11/16 05:12:49;;;;;;;32.17;14.10;;;;;;;;;;5071419;28;20715;-65
2021/11/16 05:15:16;;;;;;;29.37;13.87;;;;;;;;;;5071816;28;20201;-65
2021/11/16 05:17:43;;;;;;;29.67;13.97;;;;;;;;;;5071782;28;20235;-65
2021/11/16 05:20:10;;;;;;;28.93;12.73;;;;;;;;;;5071670;28;20304;-65
2021/11/16 05:22:41;;;;;;;33.00;12.97;;;;;;;;;;5080431;28;20227;-65
2021/11/16 05:25:09;;;;;;;30.10;13.00;;;;;;;;;;5090475;28;20288;-66
2021/11/16 05:27:36;;;;;;;33.50;13.93;;;;;;;;;;5100068;28;20263;-65
2021/11/16 05:30:07;;;;;;;31.57;13.13;;;;;;;;;;5096656;28;20287;-66
2021/11/16 05:32:34;;;;;;;27.97;12.90;;;;;;;;;;5071792;28;20248;-65
2021/11/16 05:35:00;;;;;;;33.23;14.23;;;;;;;;;;5071612;28;20215;-66
2021/11/16 05:37:27;;;;;;;27.73;12.37;;;;;;;;;;5071143;28;20236;-68
2021/11/16 05:39:53;;;;;;;29.17;12.60;;;;;;;;;;5071101;28;20215;-65
2021/11/16 05:42:21;;;;;;;33.93;13.53;;;;;;;;;;5071779;28;20677;-67
2021/11/16 05:44:48;;;;;;;28.37;12.07;;;;;;;;;;5085307;28;20307;-66
2021/11/16 05:47:15;;;;;;;32.93;13.53;;;;;;;;;;5090822;28;20735;-67
2021/11/16 05:49:41;;;;;;;27.10;12.80;;;;;;;;;;5092140;28;20649;-65
2021/11/16 05:52:08;;;;;;;25.30;12.53;;;;;;;;;;5097041;28;20990;-64
2021/11/16 05:54:34;;;;;;;35.30;14.50;;;;;;;;;;5101059;28;20236;-67
2021/11/16 05:57:03;;;;;;;29.93;13.53;;;;;;;;;;5091482;28;20228;-67
2021/11/16 05:59:33;;;;;;;31.47;13.27;;;;;;;;;;5096295;28;20240;-67
2021/11/16 06:02:01;;;;;;;28.43;13.00;;;;;;;;;;5106933;28;20208;-67
2021/11/16 06:04:27;;;;;;;30.20;13.50;;;;;;;;;;5108715;28;20212;-65
2021/11/16 06:06:54;;;;;;;28.30;11.80;;;;;;;;;;5100854;28;20242;-64
2021/11/16 06:09:20;;;;;;;28.17;13.07;;;;;;;;;;5088399;28;20262;-67
2021/11/16 06:11:48;;;;;;;28.87;13.27;;;;;;;;;;5092260;28;20207;-68
2021/11/16 06:14:15;;;;;;;29.90;12.37;;;;;;;;;;5090798;28;20209;-68
2021/11/16 06:16:41;;;;;;;33.43;13.30;;;;;;;;;;5089273;28;20231;-69
2021/11/16 06:19:08;;;;;;;33.03;13.20;;;;;;;;;;5090254;28;20757;-68
2021/11/16 06:21:35;;;;;;;31.00;12.70;;;;;;;;;;5092697;28;20295;-68
2021/11/16 06:24:01;;;;;;;34.50;14.23;;;;;;;;;;5093838;28;20657;-68
2021/11/16 06:26:32;;;;;;;31.87;12.83;;;;;;;;;;5094150;28;20255;-69
2021/11/16 06:28:59;;;;;;;34.70;13.20;;;;;;;;;;5093041;28;20267;-69
2021/11/16 06:31:26;;;;;;;30.37;13.20;;;;;;;;;;5077717;28;20566;-68
2021/11/16 06:33:55;;;;;;;28.10;13.57;;;;;;;;;;5072456;28;20217;-69
2021/11/16 06:36:35;;;;;;;28.63;12.80;;;;;;;;;;5087601;28;20216;-69
2021/11/16 06:39:10;;;;;;;29.57;12.60;;;;;;;;;;5082996;28;20215;-69
2021/11/16 06:41:37;;;;;;;32.47;12.10;;;;;;;;;;5084147;28;20219;-70
2021/11/16 06:44:04;;;;;;;28.60;13.27;;;;;;;;;;5082603;28;20202;-69
2021/11/16 06:46:32;;;;;;;27.90;13.70;;;;;;;;;;5083425;28;20303;-69
2021/11/16 06:49:00;;;;;;;28.17;12.97;;;;;;;;;;5076020;28;20236;-69
2021/11/16 06:51:26;;;;;;;31.67;13.20;;;;;;;;;;5074721;28;20226;-69
2021/11/16 06:53:53;;;;;;;26.27;12.43;;;;;;;;;;5093434;28;20203;-68
2021/11/16 06:56:22;;;;;;;27.97;13.20;;;;;;;;;;5093548;28;20264;-68
2021/11/16 06:58:49;;;;;;;28.87;12.33;;;;;;;;;;5093121;28;20254;-68
2021/11/16 07:01:15;;;;;;;29.63;12.77;;;;;;;;;;5091993;28;20209;-69
2021/11/16 07:03:47;;;;;;;25.73;12.53;;;;;;;;;;5093273;28;20295;-68
2021/11/16 07:06:14;;;;;;;29.53;13.80;;;;;;;;;;5093778;28;20323;-69
2021/11/16 07:08:42;;;;;;;28.07;13.40;;;;;;;;;;5092325;28;20196;-69
2021/11/16 07:11:13;;;;;;;26.13;11.97;;;;;;;;;;5091810;28;20283;-68
2021/11/16 07:13:52;;;;;;;26.37;13.80;;;;;;;;;;5094345;28;20204;-69
2021/11/16 07:16:18;;;;;;;28.93;11.97;;;;;;;;;;5094098;28;20229;-70
2021/11/16 07:18:47;;;;;;;30.20;13.10;;;;;;;;;;5092578;28;20200;-69
2021/11/16 07:21:14;;;;;;;26.17;12.47;;;;;;;;;;5093223;28;20303;-69
2021/11/16 07:23:40;;;;;;;27.53;12.67;;;;;;;;;;5091804;28;20220;-69
2021/11/16 07:26:14;;;;;;;31.03;13.57;;;;;;;;;;5093777;28;20323;-68
2021/11/16 07:28:44;;;;;;;23.67;11.90;;;;;;;;;;5094245;28;20204;-69
2021/11/16 07:31:19;;;;;;;25.10;12.50;;;;;;;;;;5092043;28;20228;-69
2021/11/16 07:33:45;;;;;;;27.90;13.47;;;;;;;;;;5093178;28;20203;-69
2021/11/16 07:36:15;;;;;;;29.63;13.77;;;;;;;;;;5093291;28;20311;-69
2021/11/16 07:38:48;;;;;;;24.80;12.27;;;;;;;;;;5093911;28;20201;-69
2021/11/16 07:41:19;;;;;;;29.17;13.37;;;;;;;;;;5092828;28;20247;-69
2021/11/16 07:43:46;;;;;;;26.90;13.30;;;;;;;;;;5092156;28;20291;-69
2021/11/16 07:46:12;;;;;;;26.17;12.37;;;;;;;;;;5093337;28;20228;-68
2021/11/16 07:48:39;;;;;;;28.03;13.33;;;;;;;;;;5074219;28;20201;-69
2021/11/16 07:51:09;;;;;;;28.13;12.63;;;;;;;;;;5072782;28;20198;-69
2021/11/16 07:53:39;;;;;;;22.73;11.90;;;;;;;;;;5073131;28;20244;-69
2021/11/16 07:56:10;;;;;;;26.07;11.87;;;;;;;;;;5073435;28;20225;-69
2021/11/16 07:58:39;;;;;;;26.67;12.93;;;;;;;;;;5073493;28;20237;-68
2021/11/16 08:01:08;;;;;;;25.03;11.97;;;;;;;;;;5078130;28;20234;-68
2021/11/16 08:03:43;;;;;;;28.17;13.07;;;;;;;;;;5093530;28;20211;-68
2021/11/16 08:06:18;;;;;;;30.67;12.13;;;;;;;;;;5093229;28;20263;-68
2021/11/16 08:11:20;;;;;;;28.17;11.10;;;;;;;;;;5092554;28;20240;-70
2021/11/16 08:13:51;;;;;;;23.63;11.40;;;;;;;;;;5092774;28;20204;-69
2021/11/16 08:16:18;;;;;;;23.13;10.97;;;;;;;;;;5092830;28;20242;-68
2021/11/16 08:18:46;;;;;;;25.10;10.40;;;;;;;;;;5092824;28;20239;-68
2021/11/16 08:21:14;;;;;;;20.63;10.30;;;;;;;;;;5091030;28;20259;-71
2021/11/16 08:23:58;;;;;;;20.63;11.07;;;;;;;;;;5093019;28;20353;-70
2021/11/16 08:26:31;;;;;;;16.73;9.50;;;;;;;;;;5091396;28;20316;-69
2021/11/16 08:28:58;;;;;;;19.70;10.43;;;;;;;;;;5092571;28;20204;-69
2021/11/16 08:31:26;;;;;;;18.30;9.77;;;;;;;;;;5092294;28;20217;-69
2021/11/16 08:33:53;;;;;;;19.77;9.27;;;;;;;;;;5093022;28;20205;-69
2021/11/16 08:36:25;;;;;;;20.37;9.87;;;;;;;;;;5093786;28;20235;-69
2021/11/16 08:38:51;;;;;;;15.63;8.13;;;;;;;;;;5093372;28;20228;-71
2021/11/16 08:41:22;;;;;;;17.23;9.47;;;;;;;;;;5091884;28;20673;-68
2021/11/16 08:43:49;;;;;;;21.13;9.83;;;;;;;;;;5090500;28;20204;-70
2021/11/16 08:46:18;;;;;;;18.97;8.73;;;;;;;;;;5092246;28;20239;-68
2021/11/16 08:48:50;;;;;;;17.17;8.13;;;;;;;;;;5072356;28;20204;-68
2021/11/16 08:51:17;;;;;;;16.93;9.17;;;;;;;;;;5054283;28;20240;-67
2021/11/16 08:53:44;;;;;;;17.17;9.27;;;;;;;;;;5071675;28;20288;-68
2021/11/16 08:56:15;;;;;;;13.90;7.83;;;;;;;;;;5071889;28;20332;-68
2021/11/16 08:59:12;;;;;;;17.00;8.83;;;;;;;;;;5071058;28;20209;-68
2021/11/16 09:01:38;;;;;;;14.80;8.40;;;;;;;;;;5081569;28;20205;-68
2021/11/16 09:04:06;;;;;;;13.87;7.33;;;;;;;;;;5091085;28;20204;-67
2021/11/16 09:06:36;;;;;;;13.40;7.93;;;;;;;;;;5092089;28;20267;-68
2021/11/16 09:09:11;;;;;;;18.43;8.37;;;;;;;;;;5092033;28;20296;-68
2021/11/16 09:11:38;;;;;;;13.83;7.93;;;;;;;;;;5090172;28;20237;-68
2021/11/16 09:14:14;;;;;;;17.47;8.37;;;;;;;;;;5091654;28;20235;-69
2021/11/16 09:16:43;;;;;;;13.40;6.60;;;;;;;;;;5091918;28;20220;-69
2021/11/16 09:19:22;;;;;;;13.20;7.47;;;;;;;;;;5091861;28;20300;-69
2021/11/16 09:21:49;;;;;;;20.70;7.40;;;;;;;;;;5091487;28;20295;-69
2021/11/16 09:24:18;;;;;;;14.43;7.77;;;;;;;;;;5091524;28;20639;-69
2021/11/16 09:29:17;;;;;;;12.83;7.63;;;;;;;;;;5091921;28;20265;-69
2021/11/16 09:31:46;;;;;;;16.70;8.10;;;;;;;;;;5091314;28;20228;-69
2021/11/16 09:34:13;;;;;;;17.27;7.53;;;;;;;;;;5091654;28;20671;-68
2021/11/16 09:36:41;;;;;;;13.03;8.07;;;;;;;;;;5091732;28;20232;-68
2021/11/16 09:39:12;;;;;;;13.80;7.57;;;;;;;;;;5090367;28;20299;-68
2021/11/16 09:41:57;;;;;;;15.47;8.37;;;;;;;;;;5091001;28;20677;-70
2021/11/16 09:44:31;;;;;;;14.27;8.30;;;;;;;;;;5091693;28;20251;-68
2021/11/16 09:46:59;;;;;;;17.67;8.93;;;;;;;;;;5087849;28;20288;-70
2021/11/16 09:49:35;;;;;;;17.07;9.00;;;;;;;;;;5080752;28;20672;-71
2021/11/16 09:52:04;;;;;;;12.40;7.83;;;;;;;;;;5079336;28;20247;-69
2021/11/16 09:54:31;;;;;;;13.07;8.63;;;;;;;;;;5079377;28;20300;-69
2021/11/16 09:57:04;;;;;;;16.03;8.43;;;;;;;;;;5080898;28;20256;-70
2021/11/16 09:59:32;;;;;;;13.97;8.07;;;;;;;;;;5090117;28;20323;-69
2021/11/16 10:01:58;;;;;;;16.47;8.00;;;;;;;;;;5088216;28;20464;-68
2021/11/16 10:04:32;;;;;;;15.67;8.17;;;;;;;;;;5093887;28;20699;-69
2021/11/16 10:06:58;;;;;;;17.37;8.90;;;;;;;;;;5095270;28;20335;-68
2021/11/16 10:09:25;;;;;;;15.50;8.23;;;;;;;;;;5094949;28;20292;-68
2021/11/16 10:11:52;;;;;;;17.70;8.47;;;;;;;;;;5094932;28;20737;-67
2021/11/16 10:14:20;;;;;;;13.20;7.90;;;;;;;;;;5095098;28;20226;-68
2021/11/16 10:16:47;;;;;;;15.27;8.13;;;;;;;;;;5095068;28;20270;-69
2021/11/16 10:19:34;;;;;;;16.97;9.10;;;;;;;;;;5094730;28;20223;-68
2021/11/16 10:22:00;;;;;;;17.60;8.27;;;;;;;;;;5095431;28;20254;-68
2021/11/16 10:24:27;;;;;;;18.27;9.03;;;;;;;;;;5097390;28;20268;-71
2021/11/16 10:26:54;;;;;;;14.63;7.93;;;;;;;;;;5103786;28;20267;-70
2021/11/16 10:29:22;;;;;;;17.13;9.40;;;;;;;;;;5105661;28;20201;-70
2021/11/16 10:31:50;;;;;;;19.43;9.53;;;;;;;;;;5097891;28;20203;-69
2021/11/16 10:34:17;;;;;;;14.30;7.60;;;;;;;;;;5095017;28;20247;-69
2021/11/16 10:36:44;;;;;;;20.37;10.07;;;;;;;;;;5094808;28;20315;-69
2021/11/16 10:39:11;;;;;;;14.03;8.20;;;;;;;;;;5094154;28;20211;-69
2021/11/16 10:41:39;;;;;;;19.30;9.70;;;;;;;;;;5093902;28;20209;-69
2021/11/16 10:44:10;;;;;;;19.33;9.63;;;;;;;;;;5094463;28;20611;-69
2021/11/16 10:46:38;;;;;;;18.30;9.40;;;;;;;;;;5091478;28;20225;-70
2021/11/16 10:49:10;;;;;;;17.33;9.83;;;;;;;;;;5073022;28;20237;-70
2021/11/16 10:51:37;;;;;;;15.50;8.43;;;;;;;;;;5073522;28;20205;-68
2021/11/16 10:54:04;;;;;;;15.83;9.33;;;;;;;;;;5073934;28;20296;-68
2021/11/16 10:56:31;;;;;;;17.67;8.67;;;;;;;;;;5074322;28;20256;-68
2021/11/16 10:59:17;;;;;;;19.70;9.77;;;;;;;;;;5074651;28;20264;-68
2021/11/16 11:01:43;;;;;;;20.27;9.80;;;;;;;;;;5085528;28;20665;-67
2021/11/16 11:04:15;;;;;;;19.20;9.30;;;;;;;;;;5102518;28;20272;-69
2021/11/16 11:06:43;;;;;;;16.33;8.57;;;;;;;;;;5104908;28;20765;-67
2021/11/16 11:09:13;;;;;;;19.67;9.43;;;;;;;;;;5102314;28;20197;-67
2021/11/16 11:11:42;;;;;;;23.90;10.17;;;;;;;;;;5106265;28;20200;-69
2021/11/16 11:14:10;;;;;;;20.43;9.07;;;;;;;;;;5112071;28;20196;-69
2021/11/16 11:16:38;;;;;;;21.10;9.93;;;;;;;;;;5111889;28;20224;-68
2021/11/16 11:19:08;;;;;;;16.67;8.80;;;;;;;;;;5110117;28;20577;-68
2021/11/16 11:21:48;;;;;;;18.10;9.50;;;;;;;;;;5095485;28;20723;-68
2021/11/16 11:24:15;;;;;;;20.17;8.40;;;;;;;;;;5095492;28;20210;-68
2021/11/16 11:29:25;;;;;;;18.87;10.90;;;;;;;;;;5094605;28;20207;-68
2021/11/16 11:31:56;;;;;;;25.60;9.37;;;;;;;;;;5093452;28;20200;-68
2021/11/16 11:34:34;;;;;;;20.80;10.10;;;;;;;;;;5093691;28;20213;-68
2021/11/16 11:37:06;;;;;;;17.17;8.73;;;;;;;;;;5092334;28;20224;-68
2021/11/16 11:39:32;;;;;;;13.63;8.20;;;;;;;;;;5091855;28;20215;-68
2021/11/16 11:42:00;;;;;;;20.97;9.40;;;;;;;;;;5093290;28;20208;-67
2021/11/16 11:44:27;;;;;;;23.53;10.40;;;;;;;;;;5093419;28;20295;-69
2021/11/16 11:46:53;;;;;;;19.07;8.93;;;;;;;;;;5089034;28;20303;-68
2021/11/16 11:49:20;;;;;;;25.87;10.37;;;;;;;;;;5072974;28;20285;-68
2021/11/16 11:51:46;;;;;;;16.23;8.43;;;;;;;;;;5072619;28;20686;-67
2021/11/16 11:54:16;;;;;;;21.80;9.70;;;;;;;;;;5072862;28;20288;-68
2021/11/16 11:56:43;;;;;;;20.33;9.93;;;;;;;;;;5072173;28;20233;-68
2021/11/16 11:59:10;;;;;;;19.40;9.67;;;;;;;;;;5072533;28;20304;-69
2021/11/16 12:01:36;;;;;;;22.43;10.70;;;;;;;;;;5082454;28;20210;-68
2021/11/16 12:04:03;;;;;;;17.60;9.73;;;;;;;;;;5092951;28;20263;-68
2021/11/16 12:06:30;;;;;;;23.10;9.47;;;;;;;;;;5092979;28;20231;-68
2021/11/16 12:08:57;;;;;;;22.23;10.70;;;;;;;;;;5092833;28;20558;-67
2021/11/16 12:11:24;;;;;;;23.50;10.87;;;;;;;;;;5092015;28;20247;-68
2021/11/16 12:13:52;;;;;;;20.87;10.10;;;;;;;;;;5092855;28;20288;-68
2021/11/16 12:16:28;;;;;;;26.40;11.17;;;;;;;;;;5092838;28;20308;-70
2021/11/16 12:19:24;;;;;;;25.23;10.83;;;;;;;;;;5090894;28;20219;-69
2021/11/16 12:21:50;;;;;;;26.33;10.13;;;;;;;;;;5087661;28;20734;-68
2021/11/16 12:24:30;;;;;;;22.00;10.37;;;;;;;;;;5092013;28;20295;-68
2021/11/16 12:27:01;;;;;;;24.63;10.30;;;;;;;;;;5092707;28;20259;-68
2021/11/16 12:29:32;;;;;;;26.90;11.03;;;;;;;;;;5091958;28;20224;-67
2021/11/16 12:32:14;;;;;;;23.97;11.23;;;;;;;;;;5092458;28;20231;-68
2021/11/16 12:34:47;;;;;;;24.53;10.57;;;;;;;;;;5092349;28;20292;-67
2021/11/16 12:37:27;;;;;;;22.17;10.13;;;;;;;;;;5092854;28;20311;-67
2021/11/16 12:40:00;;;;;;;24.30;10.73;;;;;;;;;;5091963;28;20257;-67
2021/11/16 12:42:27;;;;;;;21.77;10.07;;;;;;;;;;5092170;28;20239;-67
2021/11/16 12:44:59;;;;;;;25.17;10.13;;;;;;;;;;5092204;28;20923;-67
2021/11/16 12:47:31;;;;;;;19.87;9.37;;;;;;;;;;5082526;28;20294;-67
2021/11/16 12:50:08;;;;;;;25.70;10.40;;;;;;;;;;5071302;28;20207;-67
2021/11/16 12:52:42;;;;;;;20.23;10.07;;;;;;;;;;5071890;28;20207;-67
2021/11/16 12:55:38;;;;;;;24.83;9.60;;;;;;;;;;5071751;28;20741;-67
2021/11/16 12:58:26;;;;;;;26.60;10.87;;;;;;;;;;5061974;28;20235;-69
2021/11/16 13:00:53;;;;;;;24.67;11.00;;;;;;;;;;5075475;28;20221;-68
2021/11/16 13:03:38;;;;;;;20.73;9.70;;;;;;;;;;5090684;28;20207;-68
2021/11/16 13:06:12;;;;;;;22.50;9.00;;;;;;;;;;5091961;28;20341;-68
2021/11/16 13:08:38;;;;;;;20.80;9.20;;;;;;;;;;5091772;28;20201;-69
2021/11/16 13:11:05;;;;;;;19.93;9.63;;;;;;;;;;5091089;28;20631;-69
2021/11/16 13:13:40;;;;;;;25.47;10.13;;;;;;;;;;5091625;28;20765;-68
2021/11/16 13:16:07;;;;;;;19.17;8.60;;;;;;;;;;5091814;28;20318;-69
2021/11/16 13:18:36;;;;;;;23.50;10.33;;;;;;;;;;5091634;28;20257;-68
2021/11/16 13:21:08;;;;;;;24.03;10.53;;;;;;;;;;5091213;28;20212;-68
2021/11/16 13:23:35;;;;;;;25.47;10.93;;;;;;;;;;5091709;28;20249;-67
2021/11/16 13:26:07;;;;;;;19.70;9.00;;;;;;;;;;5091324;28;20303;-67
2021/11/16 13:31:17;;;;;;;24.10;9.87;;;;;;;;;;5090938;28;20684;-67
2021/11/16 13:33:52;;;;;;;23.30;9.63;;;;;;;;;;5091427;28;20212;-67
2021/11/16 13:36:23;;;;;;;19.57;9.67;;;;;;;;;;5091460;28;20277;-67
2021/11/16 13:38:58;;;;;;;22.40;9.77;;;;;;;;;;5091859;28;20205;-68
2021/11/16 13:41:43;;;;;;;22.57;9.67;;;;;;;;;;5090852;28;20208;-67
2021/11/16 13:44:30;;;;;;;21.57;9.50;;;;;;;;;;5091527;28;20291;-67
2021/11/16 13:48:01;;;;;;;21.60;9.73;;;;;;;;;;5086591;28;20221;-67
2021/11/16 13:50:24;;;;;;;25.40;9.60;;;;;;;;;;5070651;28;20839;-68
2021/11/16 13:52:55;;;;;;;21.83;9.43;;;;;;;;;;5074164;28;20201;-69
2021/11/16 13:55:32;;;;;;;20.47;9.70;;;;;;;;;;5079888;28;20237;-68
2021/11/16 13:58:01;;;;;;;23.77;10.27;;;;;;;;;;5080318;28;20254;-68
2021/11/16 14:00:30;;;;;;;25.30;10.17;;;;;;;;;;5075472;28;20216;-68
2021/11/16 14:03:01;;;;;;;25.37;9.43;;;;;;;;;;5091676;28;20212;-68
2021/11/16 14:05:27;;;;;;;26.43;10.43;;;;;;;;;;5091465;28;20300;-68
2021/11/16 14:08:01;;;;;;;21.20;9.37;;;;;;;;;;5091115;28;20224;-68
2021/11/16 14:10:29;;;;;;;19.47;8.50;;;;;;;;;;5090993;28;20261;-68
2021/11/16 14:13:08;;;;;;;25.57;10.40;;;;;;;;;;5091436;28;20715;-68
2021/11/16 14:15:34;;;;;;;19.50;8.97;;;;;;;;;;5091584;28;20239;-69
2021/11/16 14:18:08;;;;;;;19.50;8.70;;;;;;;;;;5091286;28;20208;-66
2021/11/16 14:20:36;;;;;;;18.53;9.10;;;;;;;;;;5090574;28;20650;-69
2021/11/16 14:23:20;;;;;;;19.73;9.40;;;;;;;;;;5091324;28;20287;-68
2021/11/16 14:25:48;;;;;;;21.50;8.73;;;;;;;;;;5098273;28;20656;-70
2021/11/16 14:28:16;;;;;;;22.83;8.97;;;;;;;;;;5111402;28;20695;-66
2021/11/16 14:30:42;;;;;;;22.30;9.90;;;;;;;;;;5109464;28;20236;-66
2021/11/16 14:33:16;;;;;;;18.23;9.03;;;;;;;;;;5111520;28;20203;-67
2021/11/16 14:35:47;;;;;;;20.43;8.70;;;;;;;;;;5114922;28;20242;-68
2021/11/16 14:38:14;;;;;;;18.77;9.13;;;;;;;;;;5111478;28;20583;-68
2021/11/16 14:40:41;;;;;;;21.03;9.20;;;;;;;;;;5110880;28;20244;-67
2021/11/16 14:43:18;;;;;;;20.53;8.57;;;;;;;;;;5116044;28;20712;-68
2021/11/16 14:45:44;;;;;;;24.40;8.47;;;;;;;;;;5114124;28;20278;-69
2021/11/16 14:48:18;;;;;;;20.40;9.60;;;;;;;;;;5100394;28;20239;-68
2021/11/16 14:50:58;;;;;;;24.60;9.67;;;;;;;;;;5095658;28;20254;-66
2021/11/16 14:53:30;;;;;;;28.63;11.00;;;;;;;;;;5104361;28;20274;-67
2021/11/16 14:55:56;;;;;;;27.90;10.10;;;;;;;;;;5105051;28;20659;-68
2021/11/16 14:58:23;;;;;;;20.90;8.93;;;;;;;;;;5086216;28;20296;-67
2021/11/16 15:00:50;;;;;;;23.27;8.57;;;;;;;;;;5087049;28;20657;-68
2021/11/16 15:03:20;;;;;;;15.63;7.67;;;;;;;;;;5081512;28;20750;-69
2021/11/16 15:05:50;;;;;;;19.93;8.40;;;;;;;;;;5084165;28;20256;-68
2021/11/16 15:08:22;;;;;;;19.93;9.13;;;;;;;;;;5083314;28;20639;-67
2021/11/16 15:10:57;;;;;;;19.33;8.17;;;;;;;;;;5072721;28;20196;-67
2021/11/16 15:13:24;;;;;;;17.23;8.40;;;;;;;;;;5072993;28;20657;-67
2021/11/16 15:15:52;;;;;;;15.53;8.53;;;;;;;;;;5074592;28;20253;-67
2021/11/16 15:18:19;;;;;;;18.70;8.40;;;;;;;;;;5073659;28;20619;-67
2021/11/16 15:20:50;;;;;;;19.17;8.57;;;;;;;;;;5072830;28;20243;-68
2021/11/16 15:23:23;;;;;;;21.33;8.50;;;;;;;;;;5073800;28;20617;-68
2021/11/16 15:26:10;;;;;;;17.70;8.10;;;;;;;;;;5083985;28;20460;-68
2021/11/16 15:28:38;;;;;;;18.80;7.80;;;;;;;;;;5094284;28;20225;-69